DLH12 LIMC-EDDP
Flight info
| Callsign | DLH12 |
|---|---|
| Flight time | N/A |
| Altitude | 36000 |
| Route | PEPAG DCT ABESI N851 UTAVO DCT ROLSA/N0449F370 DCT LOKTA DCT ETAGO DCT IBAGA T435 PIBAD/N0420F310 T954 GOXLI GOXLI1R |
| Aircraft | A339/H-SADE1E2E3GHIJ3J5M1P2RWXY/LB2D1 |
Departure
| Time | N/A |
|---|---|
| Airport | Milan Malpensa International Airport (LIMC) |
Arrival
| Time | 2026-05-05 22:27 |
|---|---|
| Airport | Leipzig/Halle Airport (EDDP) |
| Time | Latitude | Longitude | Altitude | Speed | Heading |
|---|---|---|---|---|---|
| 2026-05-05 22:05 | 50.98522 | 11.46546 | 22054 ft | 375 kts | 20° |
| 2026-05-05 22:06 | 51.00894 | 11.48286 | 21665 ft | 373 kts | 21° |
| 2026-05-05 22:06 | 51.03203 | 11.49983 | 21283 ft | 370 kts | 21° |
| 2026-05-05 22:06 | 51.05555 | 11.51714 | 20892 ft | 368 kts | 21° |
| 2026-05-05 22:06 | 51.07847 | 11.53435 | 20507 ft | 367 kts | 25° |
| 2026-05-05 22:07 | 51.09869 | 11.55951 | 20073 ft | 373 kts | 46° |
| 2026-05-05 22:07 | 51.11201 | 11.59509 | 19686 ft | 377 kts | 68° |
| 2026-05-05 22:07 | 51.11704 | 11.63552 | 19337 ft | 377 kts | 82° |
| 2026-05-05 22:07 | 51.11904 | 11.67721 | 18980 ft | 375 kts | 85° |
| 2026-05-05 22:08 | 51.12073 | 11.71843 | 18605 ft | 373 kts | 85° |
| 2026-05-05 22:08 | 51.12254 | 11.75938 | 18244 ft | 370 kts | 84° |
| 2026-05-05 22:08 | 51.12448 | 11.79977 | 17891 ft | 368 kts | 84° |
| 2026-05-05 22:08 | 51.12651 | 11.84048 | 17533 ft | 365 kts | 84° |
| 2026-05-05 22:09 | 51.12851 | 11.88048 | 17180 ft | 363 kts | 84° |
| 2026-05-05 22:09 | 51.13052 | 11.92051 | 16825 ft | 360 kts | 84° |
| 2026-05-05 22:09 | 51.13247 | 11.95976 | 16476 ft | 358 kts | 84° |
| 2026-05-05 22:09 | 51.13442 | 11.99934 | 16124 ft | 356 kts | 84° |
| 2026-05-05 22:10 | 51.13633 | 12.03842 | 15775 ft | 353 kts | 84° |
| 2026-05-05 22:10 | 51.13821 | 12.07713 | 15430 ft | 351 kts | 84° |
| 2026-05-05 22:10 | 51.14008 | 12.11581 | 15084 ft | 349 kts | 84° |
| 2026-05-05 22:10 | 51.14190 | 12.15374 | 14745 ft | 346 kts | 84° |
| 2026-05-05 22:11 | 51.14372 | 12.19208 | 14402 ft | 344 kts | 84° |
| 2026-05-05 22:11 | 51.14552 | 12.23010 | 14061 ft | 342 kts | 84° |
| 2026-05-05 22:11 | 51.14726 | 12.26729 | 13728 ft | 340 kts | 85° |
| 2026-05-05 22:11 | 51.14899 | 12.30455 | 13393 ft | 337 kts | 85° |
| 2026-05-05 22:12 | 51.15072 | 12.34193 | 13057 ft | 335 kts | 85° |
| 2026-05-05 22:12 | 51.15241 | 12.37878 | 12725 ft | 333 kts | 85° |
| 2026-05-05 22:12 | 51.15410 | 12.41556 | 12394 ft | 331 kts | 84° |
| 2026-05-05 22:12 | 51.15928 | 12.45073 | 12038 ft | 328 kts | 63° |
| 2026-05-05 22:13 | 51.17243 | 12.47953 | 11697 ft | 324 kts | 40° |
| 2026-05-05 22:13 | 51.19158 | 12.49778 | 11353 ft | 320 kts | 17° |
| 2026-05-05 22:13 | 51.21330 | 12.50252 | 11005 ft | 316 kts | 354° |
| 2026-05-05 22:13 | 51.23410 | 12.49344 | 10658 ft | 313 kts | 331° |
| 2026-05-05 22:14 | 51.25098 | 12.47195 | 10312 ft | 311 kts | 308° |
| 2026-05-05 22:14 | 51.26102 | 12.44200 | 10075 ft | 306 kts | 286° |
| 2026-05-05 22:14 | 51.26371 | 12.40877 | 9936 ft | 298 kts | 272° |
| 2026-05-05 22:14 | 51.26413 | 12.37648 | 9800 ft | 291 kts | 271° |
| 2026-05-05 22:15 | 51.26432 | 12.34433 | 9660 ft | 284 kts | 271° |
| 2026-05-05 22:15 | 51.26452 | 12.31312 | 9436 ft | 281 kts | 271° |
| 2026-05-05 22:15 | 51.26477 | 12.28183 | 9156 ft | 280 kts | 271° |
| 2026-05-05 22:15 | 51.26505 | 12.25078 | 8880 ft | 280 kts | 271° |
| 2026-05-05 22:16 | 51.26534 | 12.22006 | 8612 ft | 278 kts | 271° |
| 2026-05-05 22:16 | 51.26564 | 12.18919 | 8342 ft | 277 kts | 271° |
| 2026-05-05 22:16 | 51.26594 | 12.15838 | 8073 ft | 276 kts | 271° |
| 2026-05-05 22:16 | 51.26623 | 12.12782 | 7807 ft | 275 kts | 271° |
| 2026-05-05 22:17 | 51.26652 | 12.09740 | 7542 ft | 274 kts | 271° |
| 2026-05-05 22:17 | 51.26680 | 12.06679 | 7276 ft | 273 kts | 271° |
| 2026-05-05 22:17 | 51.26706 | 12.03677 | 7016 ft | 273 kts | 271° |
| 2026-05-05 22:17 | 51.26733 | 12.00645 | 6754 ft | 272 kts | 272° |
| 2026-05-05 22:18 | 51.26757 | 11.97642 | 6495 ft | 271 kts | 272° |
| 2026-05-05 22:18 | 51.26782 | 11.94634 | 6237 ft | 270 kts | 272° |
| 2026-05-05 22:18 | 51.26805 | 11.91668 | 5984 ft | 269 kts | 272° |
| 2026-05-05 22:18 | 51.26827 | 11.88667 | 5759 ft | 267 kts | 272° |
| 2026-05-05 22:19 | 51.26849 | 11.85756 | 5638 ft | 261 kts | 272° |
| 2026-05-05 22:19 | 51.26881 | 11.82878 | 5518 ft | 254 kts | 276° |
| 2026-05-05 22:19 | 51.27368 | 11.80257 | 5385 ft | 247 kts | 303° |
| 2026-05-05 22:19 | 51.28531 | 11.78309 | 5263 ft | 240 kts | 329° |
| 2026-05-05 22:20 | 51.30045 | 11.77408 | 5140 ft | 233 kts | 353° |
| 2026-05-05 22:20 | 51.31644 | 11.77620 | 4992 ft | 228 kts | 18° |
| 2026-05-05 22:20 | 51.32995 | 11.78830 | 4860 ft | 223 kts | 39° |
| 2026-05-05 22:20 | 51.34110 | 11.80493 | 4739 ft | 217 kts | 43° |
| 2026-05-05 22:21 | 51.35169 | 11.82188 | 4606 ft | 210 kts | 44° |
| 2026-05-05 22:21 | 51.36177 | 11.83799 | 4458 ft | 202 kts | 43° |
| 2026-05-05 22:21 | 51.37157 | 11.85352 | 4312 ft | 194 kts | 43° |
| 2026-05-05 22:21 | 51.38102 | 11.86837 | 4141 ft | 188 kts | 43° |
| 2026-05-05 22:22 | 51.39019 | 11.88335 | 3894 ft | 187 kts | 53° |
| 2026-05-05 22:22 | 51.39556 | 11.90208 | 3625 ft | 189 kts | 73° |
| 2026-05-05 22:22 | 51.39797 | 11.92287 | 3370 ft | 189 kts | 80° |
| 2026-05-05 22:22 | 51.39952 | 11.94353 | 3195 ft | 186 kts | 82° |
| 2026-05-05 22:23 | 51.40070 | 11.96416 | 3195 ft | 188 kts | 83° |
| 2026-05-05 22:23 | 51.40168 | 11.98496 | 3124 ft | 186 kts | 84° |
| 2026-05-05 22:23 | 51.40258 | 12.00547 | 2895 ft | 184 kts | 84° |
| 2026-05-05 22:23 | 51.40349 | 12.02643 | 2645 ft | 183 kts | 84° |
| 2026-05-05 22:24 | 51.40440 | 12.04728 | 2393 ft | 176 kts | 84° |
| 2026-05-05 22:24 | 51.40529 | 12.06732 | 2144 ft | 168 kts | 84° |
| 2026-05-05 22:24 | 51.40612 | 12.08566 | 1915 ft | 159 kts | 83° |
| 2026-05-05 22:24 | 51.40639 | 12.09155 | 1844 ft | 156 kts | 83° |
| 2026-05-05 22:25 | 51.40765 | 12.11920 | 1518 ft | 145 kts | 83° |
| 2026-05-05 22:25 | 51.40840 | 12.13543 | 1340 ft | 145 kts | 83° |
| 2026-05-05 22:25 | 51.40914 | 12.15155 | 1152 ft | 145 kts | 83° |
| 2026-05-05 22:25 | 51.40988 | 12.16757 | 959 ft | 144 kts | 83° |
| 2026-05-05 22:26 | 51.41061 | 12.18352 | 768 ft | 143 kts | 83° |
| 2026-05-05 22:26 | 51.41135 | 12.19937 | 580 ft | 143 kts | 83° |
| 2026-05-05 22:26 | 51.41207 | 12.21481 | 482 ft | 130 kts | 83° |
| 2026-05-05 22:26 | 51.41263 | 12.22568 | 478 ft | 56 kts | 86° |
| 2026-05-05 22:27 | 51.41280 | 12.22936 | 477 ft | 28 kts | 86° |
| 2026-05-05 22:27 | 51.41288 | 12.23178 | 477 ft | 14 kts | 95° |
| 2026-05-05 22:27 | 51.41226 | 12.23269 | 477 ft | 12 kts | 168° |
| 2026-05-05 22:27 | 51.41135 | 12.23285 | 477 ft | 13 kts | 178° |
| 2026-05-05 22:28 | 51.41047 | 12.23316 | 477 ft | 12 kts | 129° |
| 2026-05-05 22:28 | 51.41041 | 12.23459 | 477 ft | 13 kts | 85° |
| 2026-05-05 22:28 | 51.41048 | 12.23615 | 477 ft | 14 kts | 85° |
| 2026-05-05 22:28 | 51.41027 | 12.23729 | 477 ft | 9 kts | 149° |
| 2026-05-05 22:29 | 51.40958 | 12.23753 | 477 ft | 10 kts | 174° |
| 2026-05-05 22:29 | 51.40933 | 12.23761 | 477 ft | 2 kts | 151° |
| 2026-05-05 22:29 | 51.40929 | 12.23789 | 477 ft | 4 kts | 86° |